This is the latest recevied weather packets stored in our database for station/object KX4O-13. If no packets are shown the sender has not sent any weather packets the latest 1 day(s).
| Time | Temp. | Humidity | Pressure | Rain* | Wind** | Luminosity | Snow |
|---|---|---|---|---|---|---|---|
| 1778101251 | 20° C | 78% | 1007.5 hPa | 0 mm | - | 190 W/m² | - |
| 1778100651 | 20° C | 79% | 1007.4 hPa | 0 mm | - | 214 W/m² | - |
| 1778100051 | 20° C | 79% | 1007.4 hPa | 0 mm | - | 251 W/m² | - |
| 1778099151 | 20° C | 79% | 1007.3 hPa | 0 mm | - | 239 W/m² | - |
| 1778098851 | 20° C | 79% | 1007.3 hPa | 0 mm | - | 260 W/m² | - |
| 1778098251 | 20.56° C | 79% | 1007.3 hPa | 0 mm | - | 306 W/m² | - |
| 1778097951 | 20° C | 79% | 1007.3 hPa | 0 mm | - | 304 W/m² | - |
| 1778097351 | 20° C | 79% | 1007.4 hPa | 0 mm | - | 364 W/m² | - |
| 1778096751 | 20° C | 80% | 1007.3 hPa | 0 mm | - | 352 W/m² | - |
| 1778096451 | 20° C | 80% | 1007.4 hPa | 0 mm | - | 301 W/m² | - |
| 1778096151 | 20° C | 79% | 1007.4 hPa | 0 mm | - | 334 W/m² | - |
| 1778095251 | 19.44° C | 80% | 1007.7 hPa | 0 mm | - | 292 W/m² | - |
| 1778092251 | 18.89° C | 83% | 1008.6 hPa | 0 mm | - | 214 W/m² | - |
| 1778090751 | 18.33° C | 83% | 1008.1 hPa | 0 mm | - | 250 W/m² | - |
| 1778064352 | 17.78° C | 73% | 1009.3 hPa | 0 mm | - | 9 W/m² | - |
| 1778064052 | 17.78° C | 73% | 1009.2 hPa | 0 mm | - | 11 W/m² | - |
| 1778063752 | 17.78° C | 73% | 1009.1 hPa | 0 mm | - | 9 W/m² | - |
| 1778063152 | 17.78° C | 73% | 1009 hPa | 0 mm | - | 7 W/m² | - |
| 1778062552 | 17.78° C | 73% | 1009.1 hPa | 0 mm | - | 0 W/m² | - |
| 1778062252 | 17.22° C | 74% | 1009.1 hPa | 0 mm | - | 0 W/m² | - |
| 1778061952 | 17.78° C | 73% | 1009.1 hPa | 0 mm | - | 0 W/m² | - |
| 1778061652 | 17.78° C | 73% | 1009.1 hPa | 0 mm | - | 0 W/m² | - |
| 1778061352 | 17.78° C | 72% | 1009 hPa | 0 mm | - | 0 W/m² | - |
| 1778061054 | 17.78° C | 72% | 1009 hPa | 0 mm | - | 0 W/m² | - |
| 1778060752 | 17.78° C | 72% | 1009.1 hPa | 0 mm | - | 0 W/m² | - |
* Rain latest hour (hover to see other rain measurements)
** Current wind speed in m/s (hover to see current wind gust speed)